sensor_id;sensor_type;location;lat;lon;timestamp;P1;durP1;ratioP1;P2;durP2;ratioP2
37787;SDS011;23627;53.302;-6.362;2023-12-22T00:01:30;1.10;;;0.30;;
37787;SDS011;23627;53.302;-6.362;2023-12-22T00:03:56;1.33;;;0.30;;
37787;SDS011;23627;53.302;-6.362;2023-12-22T00:06:22;0.80;;;0.30;;
37787;SDS011;23627;53.302;-6.362;2023-12-22T00:08:47;2.13;;;0.38;;
37787;SDS011;23627;53.302;-6.362;2023-12-22T00:11:13;1.48;;;0.30;;
37787;SDS011;23627;53.302;-6.362;2023-12-22T00:13:39;2.10;;;0.30;;
37787;SDS011;23627;53.302;-6.362;2023-12-22T00:16:05;2.42;;;0.50;;
37787;SDS011;23627;53.302;-6.362;2023-12-22T00:18:31;1.33;;;0.30;;
37787;SDS011;23627;53.302;-6.362;2023-12-22T00:20:56;1.83;;;0.40;;
37787;SDS011;23627;53.302;-6.362;2023-12-22T00:23:22;1.05;;;0.57;;
37787;SDS011;23627;53.302;-6.362;2023-12-22T00:25:48;0.82;;;0.22;;
37787;SDS011;23627;53.302;-6.362;2023-12-22T00:28:14;1.10;;;0.30;;
37787;SDS011;23627;53.302;-6.362;2023-12-22T00:30:39;1.30;;;0.25;;
37787;SDS011;23627;53.302;-6.362;2023-12-22T00:33:05;1.33;;;0.28;;
37787;SDS011;23627;53.302;-6.362;2023-12-22T00:35:31;0.95;;;0.20;;
37787;SDS011;23627;53.302;-6.362;2023-12-22T00:37:58;1.95;;;0.30;;
37787;SDS011;23627;53.302;-6.362;2023-12-22T00:40:23;2.85;;;0.30;;
37787;SDS011;23627;53.302;-6.362;2023-12-22T00:42:49;1.27;;;0.25;;
37787;SDS011;23627;53.302;-6.362;2023-12-22T00:45:15;1.65;;;0.30;;
37787;SDS011;23627;53.302;-6.362;2023-12-22T00:47:40;2.63;;;0.30;;
37787;SDS011;23627;53.302;-6.362;2023-12-22T00:50:06;1.17;;;0.30;;
37787;SDS011;23627;53.302;-6.362;2023-12-22T00:52:33;1.75;;;0.30;;
37787;SDS011;23627;53.302;-6.362;2023-12-22T00:54:59;1.73;;;0.68;;
37787;SDS011;23627;53.302;-6.362;2023-12-22T00:57:25;0.70;;;0.20;;
37787;SDS011;23627;53.302;-6.362;2023-12-22T00:59:50;1.08;;;0.20;;
37787;SDS011;23627;53.302;-6.362;2023-12-22T01:02:17;1.67;;;0.38;;
37787;SDS011;23627;53.302;-6.362;2023-12-22T01:04:43;2.50;;;0.40;;
37787;SDS011;23627;53.302;-6.362;2023-12-22T01:07:10;2.33;;;0.30;;
37787;SDS011;23627;53.302;-6.362;2023-12-22T01:09:36;2.95;;;0.40;;
37787;SDS011;23627;53.302;-6.362;2023-12-22T01:12:05;3.13;;;0.40;;
37787;SDS011;23627;53.302;-6.362;2023-12-22T01:14:31;2.83;;;0.52;;
37787;SDS011;23627;53.302;-6.362;2023-12-22T01:16:58;1.85;;;0.30;;
37787;SDS011;23627;53.302;-6.362;2023-12-22T01:19:26;2.45;;;0.40;;
37787;SDS011;23627;53.302;-6.362;2023-12-22T01:21:52;1.63;;;0.30;;
37787;SDS011;23627;53.302;-6.362;2023-12-22T01:24:18;3.38;;;0.47;;
37787;SDS011;23627;53.302;-6.362;2023-12-22T01:26:44;2.60;;;0.70;;
37787;SDS011;23627;53.302;-6.362;2023-12-22T01:29:09;4.10;;;0.52;;
37787;SDS011;23627;53.302;-6.362;2023-12-22T01:31:35;2.70;;;0.50;;
37787;SDS011;23627;53.302;-6.362;2023-12-22T01:34:01;4.07;;;1.00;;
37787;SDS011;23627;53.302;-6.362;2023-12-22T01:36:27;4.28;;;0.52;;
37787;SDS011;23627;53.302;-6.362;2023-12-22T01:38:52;3.83;;;0.73;;
37787;SDS011;23627;53.302;-6.362;2023-12-22T01:41:18;2.90;;;0.40;;
37787;SDS011;23627;53.302;-6.362;2023-12-22T01:43:44;3.13;;;0.82;;
37787;SDS011;23627;53.302;-6.362;2023-12-22T01:46:09;1.77;;;0.40;;
37787;SDS011;23627;53.302;-6.362;2023-12-22T01:48:36;2.42;;;0.55;;
37787;SDS011;23627;53.302;-6.362;2023-12-22T01:51:02;3.13;;;0.40;;
37787;SDS011;23627;53.302;-6.362;2023-12-22T01:53:30;3.95;;;0.65;;
37787;SDS011;23627;53.302;-6.362;2023-12-22T01:55:57;4.13;;;0.50;;
37787;SDS011;23627;53.302;-6.362;2023-12-22T01:58:24;2.85;;;0.70;;
37787;SDS011;23627;53.302;-6.362;2023-12-22T02:00:52;4.47;;;0.80;;
37787;SDS011;23627;53.302;-6.362;2023-12-22T02:03:18;4.80;;;0.70;;
37787;SDS011;23627;53.302;-6.362;2023-12-22T02:05:44;3.90;;;0.70;;
37787;SDS011;23627;53.302;-6.362;2023-12-22T02:08:11;2.97;;;0.80;;
37787;SDS011;23627;53.302;-6.362;2023-12-22T02:10:37;3.75;;;0.70;;
37787;SDS011;23627;53.302;-6.362;2023-12-22T02:13:07;3.10;;;0.73;;
37787;SDS011;23627;53.302;-6.362;2023-12-22T02:15:34;5.95;;;1.00;;
37787;SDS011;23627;53.302;-6.362;2023-12-22T02:18:07;6.50;;;1.05;;
37787;SDS011;23627;53.302;-6.362;2023-12-22T02:20:37;5.93;;;0.60;;
37787;SDS011;23627;53.302;-6.362;2023-12-22T02:23:03;7.28;;;0.90;;
37787;SDS011;23627;53.302;-6.362;2023-12-22T02:25:29;4.05;;;0.68;;
37787;SDS011;23627;53.302;-6.362;2023-12-22T02:27:59;4.03;;;0.85;;
37787;SDS011;23627;53.302;-6.362;2023-12-22T02:33:13;8.80;;;1.20;;
37787;SDS011;23627;53.302;-6.362;2023-12-22T02:35:41;5.72;;;1.10;;
37787;SDS011;23627;53.302;-6.362;2023-12-22T02:38:09;4.60;;;0.90;;
37787;SDS011;23627;53.302;-6.362;2023-12-22T02:40:37;6.45;;;1.00;;
37787;SDS011;23627;53.302;-6.362;2023-12-22T02:43:03;9.10;;;1.50;;
37787;SDS011;23627;53.302;-6.362;2023-12-22T02:45:31;10.80;;;1.50;;
37787;SDS011;23627;53.302;-6.362;2023-12-22T02:47:57;6.10;;;1.17;;
37787;SDS011;23627;53.302;-6.362;2023-12-22T02:50:23;6.50;;;0.95;;
37787;SDS011;23627;53.302;-6.362;2023-12-22T02:52:49;9.75;;;1.33;;
37787;SDS011;23627;53.302;-6.362;2023-12-22T02:55:14;8.13;;;1.80;;
37787;SDS011;23627;53.302;-6.362;2023-12-22T02:57:40;8.60;;;1.55;;
37787;SDS011;23627;53.302;-6.362;2023-12-22T03:00:06;8.25;;;1.20;;
37787;SDS011;23627;53.302;-6.362;2023-12-22T03:02:32;8.15;;;1.52;;
37787;SDS011;23627;53.302;-6.362;2023-12-22T03:04:58;8.15;;;1.45;;
37787;SDS011;23627;53.302;-6.362;2023-12-22T03:07:24;7.25;;;1.25;;
37787;SDS011;23627;53.302;-6.362;2023-12-22T03:09:50;8.68;;;1.42;;
37787;SDS011;23627;53.302;-6.362;2023-12-22T03:12:15;8.18;;;1.27;;
37787;SDS011;23627;53.302;-6.362;2023-12-22T03:14:41;8.70;;;1.63;;
37787;SDS011;23627;53.302;-6.362;2023-12-22T03:17:07;8.20;;;1.40;;
37787;SDS011;23627;53.302;-6.362;2023-12-22T03:19:32;8.27;;;1.30;;
37787;SDS011;23627;53.302;-6.362;2023-12-22T03:21:59;6.13;;;1.23;;
37787;SDS011;23627;53.302;-6.362;2023-12-22T03:24:28;6.72;;;1.10;;
37787;SDS011;23627;53.302;-6.362;2023-12-22T03:26:54;9.20;;;1.20;;
37787;SDS011;23627;53.302;-6.362;2023-12-22T03:29:20;8.85;;;1.30;;
37787;SDS011;23627;53.302;-6.362;2023-12-22T03:31:46;8.00;;;1.20;;
37787;SDS011;23627;53.302;-6.362;2023-12-22T03:34:12;7.30;;;1.40;;
37787;SDS011;23627;53.302;-6.362;2023-12-22T03:36:37;8.00;;;1.33;;
37787;SDS011;23627;53.302;-6.362;2023-12-22T03:39:03;6.43;;;1.45;;
37787;SDS011;23627;53.302;-6.362;2023-12-22T03:41:29;8.55;;;1.58;;
37787;SDS011;23627;53.302;-6.362;2023-12-22T03:43:55;9.82;;;1.42;;
37787;SDS011;23627;53.302;-6.362;2023-12-22T03:46:22;7.05;;;1.45;;
37787;SDS011;23627;53.302;-6.362;2023-12-22T03:48:48;7.40;;;1.52;;
37787;SDS011;23627;53.302;-6.362;2023-12-22T03:51:15;8.60;;;1.38;;
37787;SDS011;23627;53.302;-6.362;2023-12-22T03:53:41;8.85;;;1.52;;
37787;SDS011;23627;53.302;-6.362;2023-12-22T03:56:07;8.45;;;1.38;;
37787;SDS011;23627;53.302;-6.362;2023-12-22T03:58:36;9.55;;;1.10;;
37787;SDS011;23627;53.302;-6.362;2023-12-22T04:01:03;7.43;;;1.58;;
37787;SDS011;23627;53.302;-6.362;2023-12-22T04:03:29;8.57;;;1.60;;
37787;SDS011;23627;53.302;-6.362;2023-12-22T04:05:55;8.07;;;1.48;;
37787;SDS011;23627;53.302;-6.362;2023-12-22T04:08:21;10.25;;;1.58;;
37787;SDS011;23627;53.302;-6.362;2023-12-22T04:10:47;7.47;;;1.58;;
37787;SDS011;23627;53.302;-6.362;2023-12-22T04:13:12;7.43;;;1.60;;
37787;SDS011;23627;53.302;-6.362;2023-12-22T04:15:38;10.38;;;1.85;;
37787;SDS011;23627;53.302;-6.362;2023-12-22T04:18:04;5.80;;;1.30;;
37787;SDS011;23627;53.302;-6.362;2023-12-22T04:20:30;6.45;;;1.70;;
37787;SDS011;23627;53.302;-6.362;2023-12-22T04:22:56;7.93;;;1.23;;
37787;SDS011;23627;53.302;-6.362;2023-12-22T04:25:22;8.27;;;1.63;;
37787;SDS011;23627;53.302;-6.362;2023-12-22T04:27:49;9.23;;;1.30;;
37787;SDS011;23627;53.302;-6.362;2023-12-22T04:30:15;6.80;;;1.38;;
37787;SDS011;23627;53.302;-6.362;2023-12-22T04:32:41;7.30;;;1.30;;
37787;SDS011;23627;53.302;-6.362;2023-12-22T04:35:07;6.75;;;1.60;;
37787;SDS011;23627;53.302;-6.362;2023-12-22T04:37:33;5.57;;;1.15;;
37787;SDS011;23627;53.302;-6.362;2023-12-22T04:39:59;6.90;;;1.30;;
37787;SDS011;23627;53.302;-6.362;2023-12-22T04:42:24;8.93;;;1.48;;
37787;SDS011;23627;53.302;-6.362;2023-12-22T04:44:51;7.95;;;1.60;;
37787;SDS011;23627;53.302;-6.362;2023-12-22T04:47:17;10.50;;;1.33;;
37787;SDS011;23627;53.302;-6.362;2023-12-22T04:49:43;10.88;;;1.55;;
37787;SDS011;23627;53.302;-6.362;2023-12-22T04:52:09;6.05;;;1.33;;
37787;SDS011;23627;53.302;-6.362;2023-12-22T04:54:36;7.28;;;1.52;;
37787;SDS011;23627;53.302;-6.362;2023-12-22T04:57:01;7.75;;;1.50;;
37787;SDS011;23627;53.302;-6.362;2023-12-22T04:59:27;7.95;;;2.00;;
37787;SDS011;23627;53.302;-6.362;2023-12-22T05:01:53;9.02;;;1.65;;
37787;SDS011;23627;53.302;-6.362;2023-12-22T05:04:19;8.18;;;1.40;;
37787;SDS011;23627;53.302;-6.362;2023-12-22T05:06:45;7.10;;;1.30;;
37787;SDS011;23627;53.302;-6.362;2023-12-22T05:09:11;6.72;;;1.10;;
37787;SDS011;23627;53.302;-6.362;2023-12-22T05:11:37;8.77;;;1.50;;
37787;SDS011;23627;53.302;-6.362;2023-12-22T05:14:03;5.38;;;1.33;;
37787;SDS011;23627;53.302;-6.362;2023-12-22T05:16:29;5.10;;;0.73;;
37787;SDS011;23627;53.302;-6.362;2023-12-22T05:18:56;4.93;;;0.85;;
37787;SDS011;23627;53.302;-6.362;2023-12-22T05:21:23;6.60;;;1.17;;
37787;SDS011;23627;53.302;-6.362;2023-12-22T05:23:49;6.43;;;1.02;;
37787;SDS011;23627;53.302;-6.362;2023-12-22T05:26:18;6.07;;;1.25;;
37787;SDS011;23627;53.302;-6.362;2023-12-22T05:28:45;6.85;;;1.20;;
37787;SDS011;23627;53.302;-6.362;2023-12-22T05:31:11;3.97;;;0.63;;
37787;SDS011;23627;53.302;-6.362;2023-12-22T05:33:37;7.30;;;1.50;;
37787;SDS011;23627;53.302;-6.362;2023-12-22T05:36:03;4.57;;;0.90;;
37787;SDS011;23627;53.302;-6.362;2023-12-22T05:38:29;5.28;;;0.80;;
37787;SDS011;23627;53.302;-6.362;2023-12-22T05:40:55;6.63;;;1.05;;
37787;SDS011;23627;53.302;-6.362;2023-12-22T05:43:21;4.45;;;0.85;;
37787;SDS011;23627;53.302;-6.362;2023-12-22T05:45:47;5.93;;;1.08;;
37787;SDS011;23627;53.302;-6.362;2023-12-22T05:48:13;5.57;;;1.00;;
37787;SDS011;23627;53.302;-6.362;2023-12-22T05:50:38;5.18;;;1.10;;
37787;SDS011;23627;53.302;-6.362;2023-12-22T05:53:04;7.53;;;1.30;;
37787;SDS011;23627;53.302;-6.362;2023-12-22T05:55:30;6.78;;;1.17;;
37787;SDS011;23627;53.302;-6.362;2023-12-22T05:57:55;6.45;;;1.40;;
37787;SDS011;23627;53.302;-6.362;2023-12-22T06:00:21;6.63;;;1.17;;
37787;SDS011;23627;53.302;-6.362;2023-12-22T06:02:47;5.78;;;1.00;;
37787;SDS011;23627;53.302;-6.362;2023-12-22T06:05:13;8.70;;;1.30;;
37787;SDS011;23627;53.302;-6.362;2023-12-22T06:07:39;7.63;;;1.33;;
37787;SDS011;23627;53.302;-6.362;2023-12-22T06:10:06;5.78;;;1.27;;
37787;SDS011;23627;53.302;-6.362;2023-12-22T06:12:34;6.93;;;1.10;;
37787;SDS011;23627;53.302;-6.362;2023-12-22T06:15:00;5.60;;;0.88;;
37787;SDS011;23627;53.302;-6.362;2023-12-22T06:17:26;4.97;;;1.13;;
37787;SDS011;23627;53.302;-6.362;2023-12-22T06:19:52;7.35;;;1.15;;
37787;SDS011;23627;53.302;-6.362;2023-12-22T06:22:17;6.72;;;1.05;;
37787;SDS011;23627;53.302;-6.362;2023-12-22T06:24:43;5.43;;;0.98;;
37787;SDS011;23627;53.302;-6.362;2023-12-22T06:27:09;5.38;;;0.80;;
37787;SDS011;23627;53.302;-6.362;2023-12-22T06:29:35;4.78;;;0.88;;
37787;SDS011;23627;53.302;-6.362;2023-12-22T06:32:01;4.40;;;1.10;;
37787;SDS011;23627;53.302;-6.362;2023-12-22T06:34:27;7.85;;;1.30;;
37787;SDS011;23627;53.302;-6.362;2023-12-22T06:36:52;5.85;;;1.45;;
37787;SDS011;23627;53.302;-6.362;2023-12-22T06:39:18;7.45;;;1.42;;
37787;SDS011;23627;53.302;-6.362;2023-12-22T06:41:44;9.68;;;1.33;;
37787;SDS011;23627;53.302;-6.362;2023-12-22T06:44:10;10.43;;;1.58;;
37787;SDS011;23627;53.302;-6.362;2023-12-22T06:46:36;8.07;;;1.30;;
37787;SDS011;23627;53.302;-6.362;2023-12-22T06:49:02;9.93;;;1.63;;
37787;SDS011;23627;53.302;-6.362;2023-12-22T06:51:28;8.05;;;1.42;;
37787;SDS011;23627;53.302;-6.362;2023-12-22T06:54:00;7.60;;;1.67;;
37787;SDS011;23627;53.302;-6.362;2023-12-22T06:56:27;6.68;;;1.30;;
37787;SDS011;23627;53.302;-6.362;2023-12-22T06:58:56;9.05;;;1.30;;
37787;SDS011;23627;53.302;-6.362;2023-12-22T07:01:29;10.20;;;1.58;;
37787;SDS011;23627;53.302;-6.362;2023-12-22T07:03:59;8.20;;;1.33;;
37787;SDS011;23627;53.302;-6.362;2023-12-22T07:06:29;7.82;;;1.75;;
37787;SDS011;23627;53.302;-6.362;2023-12-22T07:09:41;8.02;;;1.52;;
37787;SDS011;23627;53.302;-6.362;2023-12-22T07:11:48;8.15;;;1.30;;
37787;SDS011;23627;53.302;-6.362;2023-12-22T07:14:16;10.45;;;1.50;;
37787;SDS011;23627;53.302;-6.362;2023-12-22T07:16:42;9.20;;;1.50;;
37787;SDS011;23627;53.302;-6.362;2023-12-22T07:19:08;8.55;;;1.33;;
37787;SDS011;23627;53.302;-6.362;2023-12-22T07:21:34;8.18;;;1.38;;
37787;SDS011;23627;53.302;-6.362;2023-12-22T07:24:00;9.40;;;1.70;;
37787;SDS011;23627;53.302;-6.362;2023-12-22T07:26:26;9.07;;;1.35;;
37787;SDS011;23627;53.302;-6.362;2023-12-22T07:28:52;8.63;;;2.15;;
37787;SDS011;23627;53.302;-6.362;2023-12-22T07:31:19;10.73;;;1.50;;
37787;SDS011;23627;53.302;-6.362;2023-12-22T07:33:44;8.90;;;2.08;;
37787;SDS011;23627;53.302;-6.362;2023-12-22T07:36:10;9.77;;;1.45;;
37787;SDS011;23627;53.302;-6.362;2023-12-22T07:38:37;7.93;;;1.50;;
37787;SDS011;23627;53.302;-6.362;2023-12-22T07:41:04;11.02;;;1.65;;
37787;SDS011;23627;53.302;-6.362;2023-12-22T07:43:30;8.50;;;1.45;;
37787;SDS011;23627;53.302;-6.362;2023-12-22T07:45:56;8.68;;;1.50;;
37787;SDS011;23627;53.302;-6.362;2023-12-22T07:48:22;7.70;;;1.45;;
37787;SDS011;23627;53.302;-6.362;2023-12-22T07:50:49;12.95;;;1.55;;
37787;SDS011;23627;53.302;-6.362;2023-12-22T07:53:15;7.22;;;1.23;;
37787;SDS011;23627;53.302;-6.362;2023-12-22T07:55:41;8.13;;;1.60;;
37787;SDS011;23627;53.302;-6.362;2023-12-22T07:58:06;8.07;;;1.52;;
37787;SDS011;23627;53.302;-6.362;2023-12-22T08:00:33;8.20;;;1.60;;
37787;SDS011;23627;53.302;-6.362;2023-12-22T08:02:59;8.25;;;1.30;;
37787;SDS011;23627;53.302;-6.362;2023-12-22T08:05:25;10.10;;;1.80;;
37787;SDS011;23627;53.302;-6.362;2023-12-22T08:07:51;7.80;;;1.73;;
37787;SDS011;23627;53.302;-6.362;2023-12-22T08:10:17;6.82;;;1.60;;
37787;SDS011;23627;53.302;-6.362;2023-12-22T08:12:43;8.25;;;1.42;;
37787;SDS011;23627;53.302;-6.362;2023-12-22T08:15:09;11.25;;;1.67;;
37787;SDS011;23627;53.302;-6.362;2023-12-22T08:17:45;8.75;;;1.52;;
37787;SDS011;23627;53.302;-6.362;2023-12-22T08:20:17;9.68;;;1.90;;
37787;SDS011;23627;53.302;-6.362;2023-12-22T08:22:45;10.57;;;1.58;;
37787;SDS011;23627;53.302;-6.362;2023-12-22T08:25:11;11.35;;;2.25;;
37787;SDS011;23627;53.302;-6.362;2023-12-22T08:27:37;7.80;;;1.40;;
37787;SDS011;23627;53.302;-6.362;2023-12-22T08:30:02;9.13;;;1.67;;
37787;SDS011;23627;53.302;-6.362;2023-12-22T08:32:28;10.02;;;1.65;;
37787;SDS011;23627;53.302;-6.362;2023-12-22T08:34:54;9.82;;;1.58;;
37787;SDS011;23627;53.302;-6.362;2023-12-22T08:37:20;12.23;;;1.70;;
37787;SDS011;23627;53.302;-6.362;2023-12-22T08:39:45;8.65;;;1.30;;
37787;SDS011;23627;53.302;-6.362;2023-12-22T08:42:11;10.18;;;1.58;;
37787;SDS011;23627;53.302;-6.362;2023-12-22T08:44:37;10.77;;;1.60;;
37787;SDS011;23627;53.302;-6.362;2023-12-22T08:47:03;7.30;;;1.50;;
37787;SDS011;23627;53.302;-6.362;2023-12-22T08:49:29;9.02;;;1.33;;
37787;SDS011;23627;53.302;-6.362;2023-12-22T08:51:54;8.43;;;1.23;;
37787;SDS011;23627;53.302;-6.362;2023-12-22T08:54:21;12.35;;;1.73;;
37787;SDS011;23627;53.302;-6.362;2023-12-22T08:56:46;8.32;;;1.58;;
37787;SDS011;23627;53.302;-6.362;2023-12-22T08:59:12;10.07;;;2.00;;
37787;SDS011;23627;53.302;-6.362;2023-12-22T09:01:38;6.32;;;1.20;;
37787;SDS011;23627;53.302;-6.362;2023-12-22T09:04:06;11.10;;;1.58;;
37787;SDS011;23627;53.302;-6.362;2023-12-22T09:06:31;6.15;;;1.33;;
37787;SDS011;23627;53.302;-6.362;2023-12-22T09:08:57;12.45;;;2.15;;
37787;SDS011;23627;53.302;-6.362;2023-12-22T09:11:23;11.98;;;1.85;;
37787;SDS011;23627;53.302;-6.362;2023-12-22T09:13:49;10.02;;;1.95;;
37787;SDS011;23627;53.302;-6.362;2023-12-22T09:16:19;9.98;;;1.70;;
37787;SDS011;23627;53.302;-6.362;2023-12-22T09:18:46;6.25;;;1.25;;
37787;SDS011;23627;53.302;-6.362;2023-12-22T09:21:12;7.65;;;1.40;;
37787;SDS011;23627;53.302;-6.362;2023-12-22T09:23:38;7.65;;;1.20;;
37787;SDS011;23627;53.302;-6.362;2023-12-22T09:26:03;9.63;;;1.50;;
37787;SDS011;23627;53.302;-6.362;2023-12-22T09:28:30;6.47;;;1.48;;
37787;SDS011;23627;53.302;-6.362;2023-12-22T09:30:55;9.18;;;1.63;;
37787;SDS011;23627;53.302;-6.362;2023-12-22T09:33:21;8.32;;;1.60;;
37787;SDS011;23627;53.302;-6.362;2023-12-22T09:35:48;7.13;;;1.10;;
37787;SDS011;23627;53.302;-6.362;2023-12-22T09:38:13;8.90;;;1.40;;
37787;SDS011;23627;53.302;-6.362;2023-12-22T09:40:39;9.82;;;1.45;;
37787;SDS011;23627;53.302;-6.362;2023-12-22T09:43:05;8.35;;;1.40;;
37787;SDS011;23627;53.302;-6.362;2023-12-22T09:45:32;6.70;;;1.40;;
37787;SDS011;23627;53.302;-6.362;2023-12-22T09:47:59;7.85;;;1.65;;
37787;SDS011;23627;53.302;-6.362;2023-12-22T09:50:29;11.52;;;1.73;;
37787;SDS011;23627;53.302;-6.362;2023-12-22T09:52:56;7.32;;;1.45;;
37787;SDS011;23627;53.302;-6.362;2023-12-22T09:55:22;6.68;;;1.30;;
37787;SDS011;23627;53.302;-6.362;2023-12-22T09:57:51;10.27;;;1.52;;
37787;SDS011;23627;53.302;-6.362;2023-12-22T10:00:19;8.02;;;1.60;;
37787;SDS011;23627;53.302;-6.362;2023-12-22T10:02:46;7.72;;;1.20;;
37787;SDS011;23627;53.302;-6.362;2023-12-22T10:05:12;9.80;;;1.90;;
37787;SDS011;23627;53.302;-6.362;2023-12-22T10:07:38;7.05;;;1.20;;
37787;SDS011;23627;53.302;-6.362;2023-12-22T10:10:05;7.75;;;1.50;;
37787;SDS011;23627;53.302;-6.362;2023-12-22T10:12:33;8.48;;;1.48;;
37787;SDS011;23627;53.302;-6.362;2023-12-22T10:15:00;8.35;;;1.33;;
37787;SDS011;23627;53.302;-6.362;2023-12-22T10:17:26;8.00;;;1.55;;
37787;SDS011;23627;53.302;-6.362;2023-12-22T10:19:53;6.72;;;1.20;;
37787;SDS011;23627;53.302;-6.362;2023-12-22T10:22:19;8.57;;;1.38;;
37787;SDS011;23627;53.302;-6.362;2023-12-22T10:24:48;7.88;;;1.10;;
37787;SDS011;23627;53.302;-6.362;2023-12-22T10:27:15;8.82;;;1.48;;
37787;SDS011;23627;53.302;-6.362;2023-12-22T10:29:48;6.85;;;1.50;;
37787;SDS011;23627;53.302;-6.362;2023-12-22T10:32:21;7.90;;;1.40;;
37787;SDS011;23627;53.302;-6.362;2023-12-22T10:34:58;7.13;;;1.23;;
37787;SDS011;23627;53.302;-6.362;2023-12-22T10:37:24;8.38;;;1.50;;
37787;SDS011;23627;53.302;-6.362;2023-12-22T10:39:53;12.32;;;1.73;;
37787;SDS011;23627;53.302;-6.362;2023-12-22T10:42:20;6.07;;;1.30;;
37787;SDS011;23627;53.302;-6.362;2023-12-22T10:44:46;11.05;;;1.40;;
37787;SDS011;23627;53.302;-6.362;2023-12-22T10:47:13;9.40;;;1.67;;
37787;SDS011;23627;53.302;-6.362;2023-12-22T10:49:38;8.00;;;1.30;;
37787;SDS011;23627;53.302;-6.362;2023-12-22T10:52:04;8.18;;;1.50;;
37787;SDS011;23627;53.302;-6.362;2023-12-22T10:54:30;11.68;;;1.50;;
37787;SDS011;23627;53.302;-6.362;2023-12-22T10:56:59;6.88;;;1.30;;
37787;SDS011;23627;53.302;-6.362;2023-12-22T10:59:27;7.07;;;1.45;;
37787;SDS011;23627;53.302;-6.362;2023-12-22T11:01:54;7.53;;;1.20;;
37787;SDS011;23627;53.302;-6.362;2023-12-22T11:04:22;11.23;;;1.75;;
37787;SDS011;23627;53.302;-6.362;2023-12-22T11:09:22;7.13;;;1.38;;
37787;SDS011;23627;53.302;-6.362;2023-12-22T11:11:50;7.60;;;1.63;;
37787;SDS011;23627;53.302;-6.362;2023-12-22T11:14:16;9.18;;;1.55;;
37787;SDS011;23627;53.302;-6.362;2023-12-22T11:16:44;9.98;;;1.50;;
37787;SDS011;23627;53.302;-6.362;2023-12-22T11:19:13;7.38;;;1.27;;
37787;SDS011;23627;53.302;-6.362;2023-12-22T11:21:40;7.18;;;1.77;;
37787;SDS011;23627;53.302;-6.362;2023-12-22T11:24:06;8.15;;;1.42;;
37787;SDS011;23627;53.302;-6.362;2023-12-22T11:26:33;8.88;;;1.48;;
37787;SDS011;23627;53.302;-6.362;2023-12-22T11:28:59;8.80;;;2.00;;
37787;SDS011;23627;53.302;-6.362;2023-12-22T11:31:28;8.07;;;1.48;;
37787;SDS011;23627;53.302;-6.362;2023-12-22T11:33:57;7.95;;;1.20;;
37787;SDS011;23627;53.302;-6.362;2023-12-22T11:36:26;6.75;;;1.23;;
37787;SDS011;23627;53.302;-6.362;2023-12-22T11:38:56;7.93;;;1.40;;
37787;SDS011;23627;53.302;-6.362;2023-12-22T11:41:23;6.93;;;1.17;;
37787;SDS011;23627;53.302;-6.362;2023-12-22T11:43:51;6.30;;;1.00;;
37787;SDS011;23627;53.302;-6.362;2023-12-22T11:46:19;9.13;;;1.30;;
37787;SDS011;23627;53.302;-6.362;2023-12-22T11:48:48;6.30;;;1.33;;
37787;SDS011;23627;53.302;-6.362;2023-12-22T11:51:16;7.80;;;1.30;;
37787;SDS011;23627;53.302;-6.362;2023-12-22T11:53:42;5.47;;;1.20;;
37787;SDS011;23627;53.302;-6.362;2023-12-22T11:56:09;8.27;;;1.20;;
37787;SDS011;23627;53.302;-6.362;2023-12-22T11:58:46;7.10;;;1.20;;
37787;SDS011;23627;53.302;-6.362;2023-12-22T12:01:16;6.82;;;1.30;;
37787;SDS011;23627;53.302;-6.362;2023-12-22T12:09:04;8.52;;;1.50;;
37787;SDS011;23627;53.302;-6.362;2023-12-22T12:14:32;9.38;;;1.50;;
37787;SDS011;23627;53.302;-6.362;2023-12-22T12:17:07;6.68;;;1.17;;
37787;SDS011;23627;53.302;-6.362;2023-12-22T12:19:37;6.57;;;1.20;;
37787;SDS011;23627;53.302;-6.362;2023-12-22T12:22:04;4.93;;;0.90;;
37787;SDS011;23627;53.302;-6.362;2023-12-22T12:24:30;6.47;;;1.15;;
37787;SDS011;23627;53.302;-6.362;2023-12-22T12:26:56;7.60;;;1.02;;
37787;SDS011;23627;53.302;-6.362;2023-12-22T12:29:22;5.80;;;1.00;;
37787;SDS011;23627;53.302;-6.362;2023-12-22T12:31:48;5.65;;;1.00;;
37787;SDS011;23627;53.302;-6.362;2023-12-22T12:34:14;4.00;;;1.08;;
37787;SDS011;23627;53.302;-6.362;2023-12-22T12:36:42;7.63;;;0.95;;
37787;SDS011;23627;53.302;-6.362;2023-12-22T12:39:09;4.68;;;1.00;;
37787;SDS011;23627;53.302;-6.362;2023-12-22T12:41:42;5.90;;;1.00;;
37787;SDS011;23627;53.302;-6.362;2023-12-22T12:44:09;5.05;;;1.02;;
37787;SDS011;23627;53.302;-6.362;2023-12-22T12:46:36;3.95;;;1.00;;
37787;SDS011;23627;53.302;-6.362;2023-12-22T12:49:06;5.95;;;1.42;;
37787;SDS011;23627;53.302;-6.362;2023-12-22T12:51:39;6.30;;;1.00;;
37787;SDS011;23627;53.302;-6.362;2023-12-22T12:54:06;5.00;;;1.00;;
37787;SDS011;23627;53.302;-6.362;2023-12-22T12:56:39;5.93;;;1.20;;
37787;SDS011;23627;53.302;-6.362;2023-12-22T12:59:12;6.90;;;1.23;;
37787;SDS011;23627;53.302;-6.362;2023-12-22T13:01:47;5.05;;;1.00;;
37787;SDS011;23627;53.302;-6.362;2023-12-22T13:04:13;5.13;;;0.85;;
37787;SDS011;23627;53.302;-6.362;2023-12-22T13:06:43;6.22;;;1.20;;
37787;SDS011;23627;53.302;-6.362;2023-12-22T13:09:09;8.15;;;1.13;;
37787;SDS011;23627;53.302;-6.362;2023-12-22T13:11:35;6.20;;;1.42;;
37787;SDS011;23627;53.302;-6.362;2023-12-22T13:14:02;5.13;;;1.10;;
37787;SDS011;23627;53.302;-6.362;2023-12-22T13:16:29;7.07;;;1.20;;
37787;SDS011;23627;53.302;-6.362;2023-12-22T13:18:59;5.57;;;1.08;;
37787;SDS011;23627;53.302;-6.362;2023-12-22T13:21:25;5.85;;;1.38;;
37787;SDS011;23627;53.302;-6.362;2023-12-22T13:24:11;6.45;;;1.30;;
37787;SDS011;23627;53.302;-6.362;2023-12-22T13:26:39;6.40;;;1.55;;
37787;SDS011;23627;53.302;-6.362;2023-12-22T13:29:05;6.80;;;1.55;;
37787;SDS011;23627;53.302;-6.362;2023-12-22T13:31:32;6.18;;;1.25;;
37787;SDS011;23627;53.302;-6.362;2023-12-22T13:33:59;6.40;;;1.38;;
37787;SDS011;23627;53.302;-6.362;2023-12-22T13:36:25;4.65;;;1.10;;
37787;SDS011;23627;53.302;-6.362;2023-12-22T13:38:51;5.25;;;1.00;;
37787;SDS011;23627;53.302;-6.362;2023-12-22T13:41:20;3.22;;;1.35;;
37787;SDS011;23627;53.302;-6.362;2023-12-22T13:43:46;5.65;;;1.20;;
37787;SDS011;23627;53.302;-6.362;2023-12-22T13:46:12;5.22;;;1.20;;
37787;SDS011;23627;53.302;-6.362;2023-12-22T13:48:42;4.60;;;0.90;;
37787;SDS011;23627;53.302;-6.362;2023-12-22T13:51:09;5.35;;;1.30;;
37787;SDS011;23627;53.302;-6.362;2023-12-22T13:53:35;4.80;;;1.27;;
37787;SDS011;23627;53.302;-6.362;2023-12-22T13:56:11;5.75;;;1.08;;
37787;SDS011;23627;53.302;-6.362;2023-12-22T13:58:46;5.13;;;1.02;;
37787;SDS011;23627;53.302;-6.362;2023-12-22T14:01:16;6.18;;;1.30;;
37787;SDS011;23627;53.302;-6.362;2023-12-22T14:03:42;7.40;;;1.40;;
37787;SDS011;23627;53.302;-6.362;2023-12-22T14:06:09;5.22;;;1.00;;
37787;SDS011;23627;53.302;-6.362;2023-12-22T14:08:38;2.70;;;0.80;;
37787;SDS011;23627;53.302;-6.362;2023-12-22T14:11:05;5.82;;;1.00;;
37787;SDS011;23627;53.302;-6.362;2023-12-22T14:13:31;4.22;;;1.10;;
37787;SDS011;23627;53.302;-6.362;2023-12-22T14:15:58;4.63;;;0.93;;
37787;SDS011;23627;53.302;-6.362;2023-12-22T14:18:23;5.40;;;1.00;;
37787;SDS011;23627;53.302;-6.362;2023-12-22T14:20:49;5.13;;;1.15;;
37787;SDS011;23627;53.302;-6.362;2023-12-22T14:23:15;5.70;;;0.98;;
37787;SDS011;23627;53.302;-6.362;2023-12-22T14:25:44;4.28;;;1.00;;
37787;SDS011;23627;53.302;-6.362;2023-12-22T14:28:10;3.80;;;0.70;;
37787;SDS011;23627;53.302;-6.362;2023-12-22T14:30:36;3.28;;;0.80;;
37787;SDS011;23627;53.302;-6.362;2023-12-22T14:33:02;5.43;;;1.15;;
37787;SDS011;23627;53.302;-6.362;2023-12-22T14:35:28;4.03;;;0.93;;
37787;SDS011;23627;53.302;-6.362;2023-12-22T14:37:53;4.47;;;0.90;;
37787;SDS011;23627;53.302;-6.362;2023-12-22T14:40:19;5.53;;;1.15;;
37787;SDS011;23627;53.302;-6.362;2023-12-22T14:42:45;6.43;;;1.00;;
37787;SDS011;23627;53.302;-6.362;2023-12-22T14:45:10;3.53;;;0.77;;